createdAt,value
2023-10-24T00:00:02.330Z,3.22
2023-10-24T00:02:29.254Z,10.40
2023-10-24T00:04:56.287Z,2.40
2023-10-24T00:07:23.499Z,2.47
2023-10-24T00:09:50.207Z,2.80
2023-10-24T00:12:16.739Z,2.60
2023-10-24T00:14:43.585Z,2.70
2023-10-24T00:17:10.701Z,2.60
2023-10-24T00:19:37.703Z,2.62
2023-10-24T00:22:04.516Z,2.80
2023-10-24T00:24:31.358Z,2.70
2023-10-24T00:26:58.503Z,2.80
2023-10-24T00:29:25.045Z,2.95
2023-10-24T00:31:51.996Z,2.58
2023-10-24T00:34:18.687Z,2.70
2023-10-24T00:36:45.166Z,2.50
2023-10-24T00:39:12.008Z,2.67
2023-10-24T00:41:38.446Z,2.85
2023-10-24T00:44:07.069Z,2.85
2023-10-24T00:46:34.979Z,2.70
2023-10-24T00:49:01.839Z,2.75
2023-10-24T00:51:28.289Z,2.80
2023-10-24T00:53:54.797Z,2.72
2023-10-24T00:56:21.448Z,2.78
2023-10-24T00:58:48.936Z,2.50
2023-10-24T01:01:15.583Z,2.72
2023-10-24T01:03:43.856Z,2.60
2023-10-24T01:06:10.767Z,2.70
2023-10-24T01:08:37.430Z,2.35
2023-10-24T01:11:04.236Z,2.40
2023-10-24T01:13:31.145Z,2.35
2023-10-24T01:15:58.351Z,2.53
2023-10-24T01:18:25.168Z,2.50
2023-10-24T01:20:51.599Z,2.47
2023-10-24T01:23:18.041Z,2.80
2023-10-24T01:25:44.535Z,2.78
2023-10-24T01:28:11.102Z,2.87
2023-10-24T01:30:38.967Z,2.85
2023-10-24T01:33:05.537Z,3.15
2023-10-24T01:35:31.978Z,3.37
2023-10-24T01:37:58.569Z,3.08
2023-10-24T01:40:25.098Z,3.10
2023-10-24T01:42:51.530Z,3.10
2023-10-24T01:45:18.241Z,3.00
2023-10-24T01:47:44.719Z,2.78
2023-10-24T01:50:12.321Z,2.87
2023-10-24T01:52:38.869Z,2.70
2023-10-24T01:55:06.249Z,2.90
2023-10-24T01:57:32.683Z,2.83
2023-10-24T01:59:59.115Z,2.85
2023-10-24T02:02:27.261Z,2.83
2023-10-24T02:04:56.057Z,2.80
2023-10-24T02:07:28.018Z,2.87
2023-10-24T02:09:55.082Z,2.95
2023-10-24T02:12:21.463Z,2.90
2023-10-24T02:14:49.119Z,2.90
2023-10-24T02:17:15.608Z,3.20
2023-10-24T02:19:42.092Z,2.72
2023-10-24T02:22:08.674Z,2.90
2023-10-24T02:24:35.215Z,2.80
2023-10-24T02:27:01.645Z,3.10
2023-10-24T02:29:28.022Z,2.90
2023-10-24T02:31:54.574Z,2.90
2023-10-24T02:34:21.837Z,2.70
2023-10-24T02:36:48.185Z,2.65
2023-10-24T02:39:14.615Z,3.00
2023-10-24T02:41:41.054Z,2.70
2023-10-24T02:44:07.525Z,2.60
2023-10-24T02:46:34.118Z,2.78
2023-10-24T02:49:00.666Z,2.70
2023-10-24T02:51:27.709Z,2.75
2023-10-24T02:53:54.232Z,2.80
2023-10-24T02:56:20.703Z,2.58
2023-10-24T02:58:47.141Z,2.70
2023-10-24T03:01:14.250Z,2.53
2023-10-24T03:03:40.885Z,2.90
2023-10-24T03:06:14.803Z,2.55
2023-10-24T03:08:41.328Z,2.65
2023-10-24T03:11:07.659Z,2.70
2023-10-24T03:13:34.119Z,2.42
2023-10-24T03:16:06.911Z,2.42
2023-10-24T03:18:33.914Z,2.37
2023-10-24T03:21:04.861Z,2.35
2023-10-24T03:23:31.391Z,2.70
2023-10-24T03:25:57.828Z,2.60
2023-10-24T03:28:24.288Z,2.70
2023-10-24T03:31:00.451Z,2.50
2023-10-24T03:33:26.898Z,2.45
2023-10-24T03:35:53.388Z,2.42
2023-10-24T03:38:20.124Z,2.50
2023-10-24T03:40:46.585Z,2.55
2023-10-24T03:43:12.992Z,2.60
2023-10-24T03:45:39.635Z,2.60
2023-10-24T03:48:06.506Z,2.60
2023-10-24T03:50:39.502Z,2.80
2023-10-24T03:53:06.345Z,2.70
2023-10-24T03:55:35.826Z,2.67
2023-10-24T03:58:02.443Z,2.70
2023-10-24T04:00:28.922Z,2.60
2023-10-24T04:02:55.745Z,2.62
2023-10-24T04:05:23.231Z,2.60
2023-10-24T04:07:50.065Z,2.80
2023-10-24T04:10:16.714Z,2.60
2023-10-24T04:12:43.139Z,2.60
2023-10-24T04:15:09.942Z,2.58
2023-10-24T04:17:36.590Z,2.78
2023-10-24T04:20:03.672Z,2.60
2023-10-24T04:22:30.198Z,2.80
2023-10-24T04:24:56.709Z,2.80
2023-10-24T04:27:23.125Z,2.60
2023-10-24T04:29:49.566Z,2.60
2023-10-24T04:32:16.000Z,2.80
2023-10-24T04:34:42.702Z,2.72
2023-10-24T04:37:09.476Z,2.70
2023-10-24T04:39:36.005Z,2.75
2023-10-24T04:42:02.543Z,2.60
2023-10-24T04:44:29.485Z,2.50
2023-10-24T04:46:55.945Z,2.47
2023-10-24T04:49:22.698Z,2.90
2023-10-24T04:51:49.747Z,2.90
2023-10-24T04:54:16.250Z,2.80
2023-10-24T04:56:42.774Z,2.60
2023-10-24T04:59:09.213Z,2.90
2023-10-24T05:01:39.380Z,2.60
2023-10-24T05:04:06.756Z,2.55
2023-10-24T05:06:33.559Z,2.75
2023-10-24T05:09:03.354Z,2.53
2023-10-24T05:11:29.776Z,2.70
2023-10-24T05:13:56.467Z,2.80
2023-10-24T05:16:23.099Z,2.92
2023-10-24T05:18:49.853Z,2.90
2023-10-24T05:21:16.531Z,2.90
2023-10-24T05:23:42.911Z,2.97
2023-10-24T05:26:09.363Z,2.90
2023-10-24T05:28:35.840Z,2.90
2023-10-24T05:31:08.542Z,2.90
2023-10-24T05:33:39.542Z,2.60
2023-10-24T05:36:06.350Z,2.90
2023-10-24T05:38:35.437Z,2.78
2023-10-24T05:41:02.025Z,2.67
2023-10-24T05:43:28.803Z,2.80
2023-10-24T05:45:55.441Z,2.85
2023-10-24T05:48:23.013Z,2.72
2023-10-24T05:50:49.450Z,2.90
2023-10-24T05:53:15.846Z,2.58
2023-10-24T05:55:42.273Z,2.83
2023-10-24T05:58:08.650Z,2.62
2023-10-24T06:00:35.169Z,2.72
2023-10-24T06:03:01.692Z,2.72
2023-10-24T06:05:28.262Z,2.85
2023-10-24T06:07:54.767Z,2.62
2023-10-24T06:10:21.347Z,2.75
2023-10-24T06:12:47.965Z,2.55
2023-10-24T06:15:14.481Z,2.60
2023-10-24T06:17:41.103Z,2.80
2023-10-24T06:20:08.529Z,2.65
2023-10-24T06:22:35.046Z,2.90
2023-10-24T06:25:01.946Z,3.00
2023-10-24T06:27:28.403Z,3.30
2023-10-24T06:29:54.864Z,3.17
2023-10-24T06:32:21.662Z,3.10
2023-10-24T06:34:48.322Z,3.10
2023-10-24T06:37:14.769Z,3.10
2023-10-24T06:39:41.453Z,3.15
2023-10-24T06:42:07.997Z,2.95
2023-10-24T06:44:34.436Z,2.90
2023-10-24T06:47:00.842Z,2.70
2023-10-24T06:49:27.456Z,2.80
2023-10-24T06:51:53.836Z,2.62
2023-10-24T06:54:20.360Z,2.83
2023-10-24T06:56:46.791Z,2.58
2023-10-24T06:59:13.247Z,2.60
2023-10-24T07:01:39.862Z,2.78
2023-10-24T07:04:06.479Z,2.60
2023-10-24T07:06:32.912Z,2.60
2023-10-24T07:09:00.875Z,2.95
2023-10-24T07:11:27.224Z,2.87
2023-10-24T07:13:53.714Z,3.05
2023-10-24T07:16:20.319Z,2.75
2023-10-24T07:18:46.937Z,2.87
2023-10-24T07:21:15.968Z,3.00
2023-10-24T07:23:42.470Z,3.12
2023-10-24T07:26:08.941Z,3.40
2023-10-24T07:28:35.584Z,3.40
2023-10-24T07:31:03.026Z,3.50
2023-10-24T07:33:29.481Z,3.20
2023-10-24T07:36:03.064Z,3.22
2023-10-24T07:38:29.537Z,3.10
2023-10-24T07:40:55.974Z,2.97
2023-10-24T07:43:22.380Z,2.90
2023-10-24T07:45:52.549Z,3.00
2023-10-24T07:48:20.040Z,2.80
2023-10-24T07:50:56.273Z,2.45
2023-10-24T07:53:23.200Z,2.50
2023-10-24T07:55:50.087Z,2.50
2023-10-24T07:58:19.662Z,2.50
2023-10-24T08:00:46.484Z,2.67
2023-10-24T08:03:13.396Z,2.60
2023-10-24T08:05:40.283Z,2.60
2023-10-24T08:08:07.124Z,2.47
2023-10-24T08:10:33.804Z,2.90
2023-10-24T08:13:00.811Z,2.65
2023-10-24T08:15:28.241Z,2.65
2023-10-24T08:17:55.077Z,2.90
2023-10-24T08:20:21.842Z,2.70
2023-10-24T08:22:50.114Z,2.72
2023-10-24T08:25:16.653Z,2.70
2023-10-24T08:27:44.357Z,3.03
2023-10-24T08:30:11.692Z,2.80
2023-10-24T08:32:38.257Z,2.90
2023-10-24T08:35:05.791Z,3.00
2023-10-24T08:37:34.971Z,2.85
2023-10-24T08:40:01.514Z,2.90
2023-10-24T08:42:30.114Z,3.10
2023-10-24T08:44:57.533Z,3.00
2023-10-24T08:47:23.986Z,3.03
2023-10-24T08:49:50.477Z,2.70
2023-10-24T08:52:30.042Z,3.20
2023-10-24T08:55:01.477Z,2.72
2023-10-24T08:57:42.972Z,2.70
2023-10-24T09:00:11.560Z,2.70
2023-10-24T09:02:39.611Z,2.53
2023-10-24T09:05:07.023Z,2.40
2023-10-24T09:07:33.561Z,2.53
2023-10-24T09:09:59.963Z,2.50
2023-10-24T09:12:29.632Z,2.90
2023-10-24T09:14:56.233Z,2.53
2023-10-24T09:17:24.690Z,2.53
2023-10-24T09:19:52.205Z,2.70
2023-10-24T09:22:18.706Z,2.65
2023-10-24T09:24:45.957Z,3.10
2023-10-24T09:27:15.813Z,2.95
2023-10-24T09:29:42.555Z,3.20
2023-10-24T09:32:19.026Z,3.20
2023-10-24T09:34:46.617Z,3.20
2023-10-24T09:37:14.076Z,3.10
2023-10-24T09:39:56.530Z,2.50
2023-10-24T09:42:33.401Z,2.70
2023-10-24T09:45:04.561Z,2.72
2023-10-24T09:47:32.034Z,2.90
2023-10-24T09:49:58.694Z,2.70
2023-10-24T09:52:27.974Z,2.50
2023-10-24T09:54:56.024Z,2.67
2023-10-24T09:57:23.202Z,2.70
2023-10-24T09:59:57.502Z,2.72
2023-10-24T10:02:24.829Z,3.20
2023-10-24T10:04:51.403Z,3.05
2023-10-24T10:07:18.357Z,3.03
2023-10-24T10:09:50.779Z,3.75
2023-10-24T10:12:22.897Z,3.65
2023-10-24T10:15:18.895Z,3.87
2023-10-24T10:18:06.099Z,3.80
2023-10-24T10:20:50.045Z,3.58
2023-10-24T10:26:58.149Z,4.70
2023-10-24T10:30:02.949Z,3.70
2023-10-24T10:33:29.146Z,4.35
2023-10-24T10:36:03.219Z,4.72
2023-10-24T10:38:45.657Z,6.53
2023-10-24T10:41:54.389Z,6.43
2023-10-24T10:44:43.926Z,5.30
2023-10-24T10:47:15.345Z,5.20
2023-10-24T10:49:49.315Z,4.90
2023-10-24T10:52:47.283Z,5.18
2023-10-24T10:55:37.277Z,5.40
2023-10-24T10:58:24.306Z,5.70
2023-10-24T11:01:01.888Z,6.03
2023-10-24T11:03:38.176Z,6.40
2023-10-24T11:06:17.789Z,6.15
2023-10-24T11:08:49.085Z,6.03
2023-10-24T11:11:18.722Z,6.80
2023-10-24T11:13:45.338Z,6.60
2023-10-24T11:16:25.202Z,6.80
2023-10-24T11:18:57.082Z,6.78
2023-10-24T11:21:23.433Z,6.70
2023-10-24T11:23:51.621Z,6.60
2023-10-24T11:26:17.988Z,6.25
2023-10-24T11:28:45.014Z,6.43
2023-10-24T11:31:24.464Z,6.45
2023-10-24T11:33:51.364Z,5.95
2023-10-24T11:36:17.727Z,6.60
2023-10-24T11:38:45.248Z,7.10
2023-10-24T11:41:11.778Z,7.10
2023-10-24T11:43:38.236Z,7.18
2023-10-24T11:46:04.790Z,7.50
2023-10-24T11:48:31.245Z,7.75
2023-10-24T11:51:05.115Z,8.75
2023-10-24T11:53:31.637Z,8.43
2023-10-24T11:55:58.241Z,7.72
2023-10-24T11:58:34.727Z,7.95
2023-10-24T12:01:01.480Z,8.43
2023-10-24T12:03:46.256Z,8.60
2023-10-24T12:06:12.749Z,8.02
2023-10-24T12:08:42.426Z,8.77
2023-10-24T12:11:09.225Z,11.38
2023-10-24T12:13:35.641Z,8.40
2023-10-24T12:16:02.571Z,8.50
2023-10-24T12:18:30.322Z,8.82
2023-10-24T12:20:56.708Z,8.88
2023-10-24T12:23:24.176Z,8.57
2023-10-24T12:25:51.221Z,8.02
2023-10-24T12:28:17.611Z,38.20
2023-10-24T12:30:45.944Z,7.07
2023-10-24T12:33:12.746Z,7.47
2023-10-24T12:35:39.369Z,6.90
2023-10-24T12:38:06.081Z,6.75
2023-10-24T12:40:32.545Z,7.05
2023-10-24T12:42:59.083Z,7.55
2023-10-24T12:45:25.517Z,7.43
2023-10-24T12:47:54.277Z,7.87
2023-10-24T12:50:21.246Z,7.95
2023-10-24T12:52:47.597Z,7.25
2023-10-24T12:55:14.513Z,7.57
2023-10-24T12:57:40.953Z,8.07
2023-10-24T13:00:09.330Z,10.77
2023-10-24T13:02:35.914Z,11.80
2023-10-24T13:05:02.924Z,14.43
2023-10-24T13:07:29.539Z,15.27
2023-10-24T13:09:56.142Z,14.52
2023-10-24T13:12:22.815Z,14.73
2023-10-24T13:14:49.462Z,12.82
2023-10-24T13:17:16.371Z,11.93
2023-10-24T13:19:43.954Z,10.65
2023-10-24T13:22:11.049Z,10.15
2023-10-24T13:24:38.098Z,8.38
2023-10-24T13:27:05.083Z,8.30
2023-10-24T13:29:31.559Z,7.37
2023-10-24T13:31:59.431Z,6.45
2023-10-24T13:36:55.315Z,5.82
2023-10-24T13:39:21.696Z,5.05
2023-10-24T13:41:48.625Z,5.85
2023-10-24T13:44:15.137Z,5.22
2023-10-24T13:46:42.080Z,5.95
2023-10-24T13:49:08.785Z,6.07
2023-10-24T13:51:35.899Z,6.57
2023-10-24T13:54:02.980Z,6.30
2023-10-24T13:56:29.368Z,6.12
2023-10-24T13:58:55.810Z,6.55
2023-10-24T14:01:22.315Z,6.87
2023-10-24T14:03:48.853Z,8.00
2023-10-24T14:06:15.286Z,8.35
2023-10-24T14:08:41.670Z,9.13
2023-10-24T14:11:08.200Z,8.65
2023-10-24T14:13:34.688Z,8.80
2023-10-24T14:16:01.107Z,6.50
2023-10-24T14:18:27.480Z,7.30
2023-10-24T14:20:53.839Z,7.15
2023-10-24T14:23:20.233Z,7.20
2023-10-24T14:25:46.620Z,6.68
2023-10-24T14:28:12.975Z,5.50
2023-10-24T14:30:39.346Z,4.60
2023-10-24T14:33:05.852Z,4.55
2023-10-24T14:35:32.321Z,5.32
2023-10-24T14:37:58.762Z,6.87
2023-10-24T14:40:25.287Z,5.20
2023-10-24T14:42:51.631Z,5.93
2023-10-24T14:45:18.037Z,5.10
2023-10-24T14:47:44.512Z,4.68
2023-10-24T14:50:11.270Z,5.03
2023-10-24T14:52:37.728Z,6.07
2023-10-24T14:55:06.561Z,4.15
2023-10-24T14:57:32.905Z,4.60
2023-10-24T14:59:59.302Z,4.28
2023-10-24T15:02:25.687Z,3.40
2023-10-24T15:04:52.063Z,3.55
2023-10-24T15:07:18.517Z,3.87
2023-10-24T15:09:44.943Z,4.12
2023-10-24T15:12:11.319Z,4.20
2023-10-24T15:14:37.703Z,4.90
2023-10-24T15:17:04.306Z,4.70
2023-10-24T15:19:30.841Z,5.00
2023-10-24T15:21:57.228Z,4.60
2023-10-24T15:24:23.578Z,4.18
2023-10-24T15:26:50.097Z,4.03
2023-10-24T15:29:16.569Z,3.70
2023-10-24T15:31:43.178Z,3.70
2023-10-24T15:34:11.037Z,3.35
2023-10-24T15:36:37.989Z,3.15
2023-10-24T15:39:06.690Z,3.12
2023-10-24T15:41:35.876Z,2.50
2023-10-24T15:44:02.556Z,2.50
2023-10-24T15:46:29.067Z,2.50
2023-10-24T15:48:55.567Z,2.65
2023-10-24T15:51:26.404Z,2.30
2023-10-24T15:53:53.284Z,2.70
2023-10-24T15:56:19.668Z,2.60
2023-10-24T15:58:46.245Z,2.45
2023-10-24T16:01:16.934Z,2.60
2023-10-24T16:03:44.151Z,2.65
2023-10-24T16:06:10.845Z,2.60
2023-10-24T16:08:37.265Z,2.70
2023-10-24T16:11:04.376Z,2.70
2023-10-24T16:13:31.522Z,2.35
2023-10-24T16:15:58.222Z,2.47
2023-10-24T16:18:24.644Z,2.53
2023-10-24T16:21:02.301Z,2.58
2023-10-24T16:23:29.617Z,2.70
2023-10-24T16:26:00.527Z,2.58
2023-10-24T16:28:27.294Z,2.40
2023-10-24T16:30:53.650Z,2.50
2023-10-24T16:33:20.099Z,2.58
2023-10-24T16:35:49.747Z,2.65
2023-10-24T16:38:16.244Z,2.40
2023-10-24T16:40:42.874Z,2.47
2023-10-24T16:43:09.294Z,2.50
2023-10-24T16:45:35.652Z,2.30
2023-10-24T16:48:02.056Z,2.33
2023-10-24T16:50:28.975Z,2.40
2023-10-24T16:52:55.654Z,2.50
2023-10-24T16:55:22.126Z,2.40
2023-10-24T16:57:49.358Z,2.25
2023-10-24T17:00:19.286Z,2.20
2023-10-24T17:02:45.943Z,2.20
2023-10-24T17:05:12.948Z,2.20
2023-10-24T17:07:42.077Z,2.30
2023-10-24T17:10:11.214Z,2.37
2023-10-24T17:12:40.868Z,2.33
2023-10-24T17:15:08.330Z,2.30
2023-10-24T17:17:35.395Z,2.40
2023-10-24T17:20:04.431Z,2.47
2023-10-24T17:22:32.660Z,4.07
2023-10-24T17:25:03.525Z,2.78
2023-10-24T17:27:31.285Z,2.70
2023-10-24T17:29:58.700Z,2.80
2023-10-24T17:32:25.467Z,2.90
2023-10-24T17:34:52.082Z,2.65
2023-10-24T17:37:18.607Z,2.80
2023-10-24T17:39:45.050Z,2.87
2023-10-24T17:42:11.584Z,2.75
2023-10-24T17:44:38.364Z,2.78
2023-10-24T17:47:05.649Z,2.70
2023-10-24T17:49:32.614Z,2.75
2023-10-24T17:51:59.060Z,2.62
2023-10-24T17:54:26.275Z,2.85
2023-10-24T17:56:58.199Z,2.85
2023-10-24T17:59:24.911Z,2.65
2023-10-24T18:01:52.546Z,3.05
2023-10-24T18:04:20.616Z,2.97
2023-10-24T18:06:47.077Z,2.72
2023-10-24T18:09:13.599Z,3.12
2023-10-24T18:11:40.140Z,2.95
2023-10-24T18:14:06.540Z,3.00
2023-10-24T18:16:33.053Z,2.92
2023-10-24T18:19:01.888Z,2.95
2023-10-24T18:21:31.098Z,3.00
2023-10-24T18:23:57.477Z,2.67
2023-10-24T18:26:23.862Z,2.72
2023-10-24T18:28:50.310Z,2.67
2023-10-24T18:31:17.118Z,2.80
2023-10-24T18:33:43.567Z,2.70
2023-10-24T18:36:12.378Z,2.70
2023-10-24T18:38:41.054Z,2.65
2023-10-24T18:41:11.069Z,2.65
2023-10-24T18:43:37.780Z,2.60
2023-10-24T18:46:12.916Z,2.70
2023-10-24T18:48:39.473Z,2.65
2023-10-24T18:51:10.664Z,2.70
2023-10-24T18:53:37.454Z,2.67
2023-10-24T18:56:04.067Z,2.55
2023-10-24T18:58:31.090Z,2.50
2023-10-24T19:00:58.337Z,2.67
2023-10-24T19:05:55.662Z,2.55
2023-10-24T19:08:22.862Z,2.58
2023-10-24T19:10:49.591Z,2.62
2023-10-24T19:13:19.306Z,2.60
2023-10-24T19:15:46.110Z,2.53
2023-10-24T19:18:15.232Z,2.47
2023-10-24T19:20:43.823Z,2.60
2023-10-24T19:23:10.932Z,2.40
2023-10-24T19:25:39.048Z,2.53
2023-10-24T19:28:06.062Z,2.25
2023-10-24T19:30:33.348Z,2.40
2023-10-24T19:33:00.445Z,2.40
2023-10-24T19:35:28.240Z,2.40
2023-10-24T19:37:56.464Z,2.40
2023-10-24T19:40:23.815Z,2.35
2023-10-24T19:42:50.783Z,2.40
2023-10-24T19:45:17.969Z,2.40
2023-10-24T19:47:50.477Z,2.40
2023-10-24T19:50:20.305Z,2.40
2023-10-24T19:52:47.116Z,2.70
2023-10-24T19:55:31.948Z,2.60
2023-10-24T19:58:00.706Z,2.60
2023-10-24T20:00:28.559Z,2.70
2023-10-24T20:02:55.455Z,2.60
2023-10-24T20:05:22.469Z,2.65
2023-10-24T20:07:53.030Z,2.80
2023-10-24T20:11:40.910Z,2.90
2023-10-24T20:15:03.477Z,2.70
2023-10-24T20:17:30.569Z,2.70
2023-10-24T20:19:59.979Z,2.83
2023-10-24T20:22:26.713Z,2.50
2023-10-24T20:24:53.510Z,2.70
2023-10-24T20:27:19.935Z,2.40
2023-10-24T20:29:47.426Z,2.60
2023-10-24T20:32:13.769Z,2.80
2023-10-24T20:34:40.114Z,2.70
2023-10-24T20:37:06.653Z,3.00
2023-10-24T20:39:33.091Z,3.00
2023-10-24T20:41:59.474Z,3.00
2023-10-24T20:44:25.932Z,3.20
2023-10-24T20:46:52.318Z,3.00
2023-10-24T20:49:19.780Z,2.95
2023-10-24T20:51:46.203Z,3.05
2023-10-24T20:54:14.982Z,2.83
2023-10-24T20:56:41.422Z,2.90
2023-10-24T20:59:07.834Z,2.78
2023-10-24T21:01:34.317Z,2.80
2023-10-24T21:04:00.792Z,2.92
2023-10-24T21:06:28.391Z,2.67
2023-10-24T21:08:54.762Z,2.60
2023-10-24T21:11:21.114Z,2.80
2023-10-24T21:13:47.495Z,2.80
2023-10-24T21:16:13.941Z,2.80
2023-10-24T21:18:40.895Z,3.00
2023-10-24T21:21:09.338Z,2.97
2023-10-24T21:23:36.390Z,2.70
2023-10-24T21:26:03.221Z,2.80
2023-10-24T21:28:30.537Z,3.00
2023-10-24T21:30:57.113Z,3.20
2023-10-24T21:33:23.830Z,2.97
2023-10-24T21:35:50.660Z,3.15
2023-10-24T21:38:17.286Z,3.15
2023-10-24T21:40:53.650Z,3.30
2023-10-24T21:43:20.290Z,3.12
2023-10-24T21:45:46.946Z,3.20
2023-10-24T21:48:13.677Z,3.00
2023-10-24T21:50:40.936Z,3.25
2023-10-24T21:53:07.780Z,3.10
2023-10-24T21:55:35.237Z,3.15
2023-10-24T21:58:02.490Z,3.15
2023-10-24T22:00:32.947Z,3.20
2023-10-24T22:03:00.195Z,3.10
2023-10-24T22:05:26.907Z,3.00
2023-10-24T22:07:53.449Z,3.10
2023-10-24T22:10:20.143Z,3.10
2023-10-24T22:12:47.073Z,3.08
2023-10-24T22:15:17.804Z,3.05
2023-10-24T22:17:44.688Z,3.30
2023-10-24T22:20:11.978Z,3.17
2023-10-24T22:22:38.494Z,3.10
2023-10-24T22:25:06.432Z,3.00
2023-10-24T22:27:33.121Z,3.17
2023-10-24T22:29:59.733Z,3.28
2023-10-24T22:32:26.765Z,3.40
2023-10-24T22:34:53.518Z,4.00
2023-10-24T22:37:20.156Z,4.40
2023-10-24T22:39:47.078Z,3.33
2023-10-24T22:42:13.945Z,3.28
2023-10-24T22:44:40.432Z,3.25
2023-10-24T22:47:07.014Z,3.15
2023-10-24T22:49:33.397Z,3.20
2023-10-24T22:51:59.808Z,3.17
2023-10-24T22:54:26.214Z,3.20
2023-10-24T22:56:53.360Z,3.20
2023-10-24T22:59:19.888Z,3.20
2023-10-24T23:01:47.642Z,3.15
2023-10-24T23:04:14.405Z,4.45
2023-10-24T23:06:41.201Z,3.15
2023-10-24T23:09:08.085Z,3.33
2023-10-24T23:11:34.661Z,3.20
2023-10-24T23:14:01.411Z,3.33
2023-10-24T23:16:28.213Z,3.47
2023-10-24T23:18:54.979Z,3.30
2023-10-24T23:21:21.870Z,3.47
2023-10-24T23:23:49.131Z,3.40
2023-10-24T23:26:15.508Z,3.58
2023-10-24T23:28:41.937Z,3.20
2023-10-24T23:31:08.663Z,3.55
2023-10-24T23:33:35.414Z,3.47
2023-10-24T23:36:01.898Z,3.50
2023-10-24T23:38:28.457Z,3.40
2023-10-24T23:40:54.856Z,3.42
2023-10-24T23:43:21.296Z,3.30
2023-10-24T23:45:47.858Z,3.40
2023-10-24T23:48:14.412Z,3.50
2023-10-24T23:50:40.891Z,3.17
2023-10-24T23:53:07.434Z,3.47
2023-10-24T23:55:36.790Z,3.50
2023-10-24T23:58:03.781Z,3.55
